createdAt,value
2024-04-30T00:00:22.000Z,51.2
2024-04-30T00:01:22.000Z,51.2
2024-04-30T00:02:25.000Z,51.2
2024-04-30T00:03:23.000Z,51.2
2024-04-30T00:04:22.000Z,51.3
2024-04-30T00:05:25.000Z,51.3
2024-04-30T00:06:22.000Z,51.2
2024-04-30T00:07:22.000Z,51.3
2024-04-30T00:08:22.000Z,51.5
2024-04-30T00:09:22.000Z,51.4
2024-04-30T00:10:22.000Z,51.5
2024-04-30T00:11:25.000Z,51.3
2024-04-30T00:12:22.000Z,51.6
2024-04-30T00:13:22.000Z,51.6
2024-04-30T00:14:22.000Z,51.5
2024-04-30T00:15:22.000Z,51.7
2024-04-30T00:16:22.000Z,51.6
2024-04-30T00:17:22.000Z,51.7
2024-04-30T00:18:23.000Z,51.7
2024-04-30T00:19:22.000Z,51.8
2024-04-30T00:20:22.000Z,51.8
2024-04-30T00:21:22.000Z,51.8
2024-04-30T00:22:22.000Z,51.9
2024-04-30T00:23:22.000Z,52
2024-04-30T00:24:22.000Z,52
2024-04-30T00:25:22.000Z,51.9
2024-04-30T00:26:26.000Z,52
2024-04-30T00:27:22.000Z,52
2024-04-30T00:28:24.000Z,52
2024-04-30T00:29:22.000Z,52
2024-04-30T00:30:22.000Z,52.1
2024-04-30T00:31:22.000Z,52.1
2024-04-30T00:32:22.000Z,52.1
2024-04-30T00:33:22.000Z,52.1
2024-04-30T00:34:22.000Z,52.2
2024-04-30T00:35:23.000Z,52.1
2024-04-30T00:36:23.000Z,52.2
2024-04-30T00:37:22.000Z,52.1
2024-04-30T00:38:22.000Z,52.2
2024-04-30T00:39:22.000Z,52.2
2024-04-30T00:40:25.000Z,52.2
2024-04-30T00:41:22.000Z,52.2
2024-04-30T00:42:22.000Z,52.2
2024-04-30T00:43:22.000Z,52.3
2024-04-30T00:44:22.000Z,52.4
2024-04-30T00:45:22.000Z,52.4
2024-04-30T00:46:23.000Z,52.5
2024-04-30T00:47:25.000Z,52.4
2024-04-30T00:48:24.000Z,52.5
2024-04-30T00:49:24.000Z,52.4
2024-04-30T00:50:23.000Z,52.5
2024-04-30T00:51:22.000Z,52.5
2024-04-30T00:52:24.000Z,52.5
2024-04-30T00:53:23.000Z,52.3
2024-04-30T00:54:25.000Z,52.6
2024-04-30T00:55:22.000Z,52.6
2024-04-30T00:56:24.000Z,52.5
2024-04-30T00:57:23.000Z,52.7
2024-04-30T00:58:22.000Z,52.8
2024-04-30T00:59:24.000Z,52.8
2024-04-30T01:00:25.000Z,52.9
2024-04-30T01:01:22.000Z,53
2024-04-30T01:02:23.000Z,53
2024-04-30T01:03:22.000Z,53.1
2024-04-30T01:04:22.000Z,53.1
2024-04-30T01:05:22.000Z,53.1
2024-04-30T01:06:22.000Z,53.1
2024-04-30T01:07:22.000Z,53.2
2024-04-30T01:08:22.000Z,53.1
2024-04-30T01:09:25.000Z,53.2
2024-04-30T01:10:22.000Z,53.3
2024-04-30T01:11:22.000Z,53.3
2024-04-30T01:12:22.000Z,53.2
2024-04-30T01:13:28.000Z,53.3
2024-04-30T01:14:22.000Z,53.3
2024-04-30T01:15:22.000Z,53.4
2024-04-30T01:16:22.000Z,53.3
2024-04-30T01:17:22.000Z,53.4
2024-04-30T01:18:22.000Z,53.4
2024-04-30T01:19:22.000Z,53.4
2024-04-30T01:20:22.000Z,53.4
2024-04-30T01:21:22.000Z,53.4
2024-04-30T01:22:23.000Z,53.5
2024-04-30T01:23:22.000Z,53.5
2024-04-30T01:24:22.000Z,53.5
2024-04-30T01:25:22.000Z,53.6
2024-04-30T01:26:22.000Z,53.1
2024-04-30T01:27:23.000Z,53.7
2024-04-30T01:28:25.000Z,53.6
2024-04-30T01:29:22.000Z,53.7
2024-04-30T01:30:22.000Z,53.7
2024-04-30T01:31:22.000Z,53.4
2024-04-30T01:32:22.000Z,53.7
2024-04-30T01:33:22.000Z,53.8
2024-04-30T01:34:25.000Z,53.8
2024-04-30T01:35:22.000Z,53.9
2024-04-30T01:36:22.000Z,53.8
2024-04-30T01:37:22.000Z,53.9
2024-04-30T01:38:22.000Z,53.9
2024-04-30T01:39:22.000Z,53.9
2024-04-30T01:40:22.000Z,53.9
2024-04-30T01:41:22.000Z,54
2024-04-30T01:42:22.000Z,54.1
2024-04-30T01:43:22.000Z,53.9
2024-04-30T01:44:22.000Z,54.1
2024-04-30T01:45:22.000Z,54.1
2024-04-30T01:46:22.000Z,54.2
2024-04-30T01:47:23.000Z,54.2
2024-04-30T01:48:22.000Z,54.3
2024-04-30T01:49:23.000Z,54.3
2024-04-30T01:50:22.000Z,54.2
2024-04-30T01:51:22.000Z,54.4
2024-04-30T01:52:22.000Z,54.3
2024-04-30T01:53:25.000Z,54.5
2024-04-30T01:54:22.000Z,54.5
2024-04-30T01:55:22.000Z,54.5
2024-04-30T01:56:22.000Z,54.6
2024-04-30T01:57:22.000Z,54.7
2024-04-30T01:58:22.000Z,54.6
2024-04-30T01:59:22.000Z,54.8
2024-04-30T02:00:23.000Z,54.8
2024-04-30T02:01:22.000Z,54.7
2024-04-30T02:02:22.000Z,54.8
2024-04-30T02:03:22.000Z,54.8
2024-04-30T02:04:24.000Z,54.8
2024-04-30T02:06:22.000Z,54.9
2024-04-30T02:07:22.000Z,54.9
2024-04-30T02:08:22.000Z,54.9
2024-04-30T02:09:24.000Z,55
2024-04-30T02:10:27.000Z,54.9
2024-04-30T02:11:22.000Z,55
2024-04-30T02:12:22.000Z,55
2024-04-30T02:13:22.000Z,55.1
2024-04-30T02:14:22.000Z,55.1
2024-04-30T02:15:21.000Z,55.1
2024-04-30T02:16:24.000Z,55.2
2024-04-30T02:17:24.000Z,55.3
2024-04-30T02:18:22.000Z,55.3
2024-04-30T02:19:22.000Z,55.2
2024-04-30T02:20:22.000Z,55.1
2024-04-30T02:21:22.000Z,55.3
2024-04-30T02:22:22.000Z,55.3
2024-04-30T02:23:22.000Z,55.3
2024-04-30T02:24:22.000Z,55.2
2024-04-30T02:25:22.000Z,55.3
2024-04-30T02:26:21.000Z,55.3
2024-04-30T02:27:24.000Z,55.3
2024-04-30T02:28:22.000Z,55.3
2024-04-30T02:29:22.000Z,55.3
2024-04-30T02:34:16.000Z,55.3
2024-04-30T02:35:22.000Z,55.5
2024-04-30T02:36:22.000Z,55.4
2024-04-30T02:37:22.000Z,55.4
2024-04-30T02:38:22.000Z,55.4
2024-04-30T02:39:22.000Z,55.4
2024-04-30T02:40:22.000Z,55.3
2024-04-30T02:41:22.000Z,55.4
2024-04-30T02:42:22.000Z,55.4
2024-04-30T02:43:22.000Z,55.4
2024-04-30T02:44:22.000Z,55.1
2024-04-30T02:45:22.000Z,55.3
2024-04-30T02:46:22.000Z,55.4
2024-04-30T02:47:22.000Z,55.3
2024-04-30T02:48:26.000Z,55.4
2024-04-30T02:49:22.000Z,55.4
2024-04-30T02:50:22.000Z,55.4
2024-04-30T02:51:23.000Z,55.4
2024-04-30T02:52:22.000Z,55.4
2024-04-30T02:53:22.000Z,55.5
2024-04-30T02:54:24.000Z,55.2
2024-04-30T02:55:22.000Z,55.5
2024-04-30T02:56:27.000Z,55.5
2024-04-30T02:57:22.000Z,55.5
2024-04-30T02:58:22.000Z,55.5
2024-04-30T02:59:22.000Z,55.4
2024-04-30T03:00:22.000Z,55.4
2024-04-30T03:01:22.000Z,55.3
2024-04-30T03:02:22.000Z,55
2024-04-30T03:03:22.000Z,55.4
2024-04-30T03:04:22.000Z,55.4
2024-04-30T03:05:24.000Z,55.4
2024-04-30T03:06:22.000Z,55.4
2024-04-30T03:07:22.000Z,55.4
2024-04-30T03:08:22.000Z,55.4
2024-04-30T03:09:22.000Z,55.4
2024-04-30T03:10:22.000Z,55.3
2024-04-30T03:11:22.000Z,55.4
2024-04-30T03:12:22.000Z,55.3
2024-04-30T03:13:22.000Z,55.4
2024-04-30T03:14:22.000Z,55.4
2024-04-30T03:15:22.000Z,55.4
2024-04-30T03:16:22.000Z,55.5
2024-04-30T03:17:22.000Z,55.5
2024-04-30T03:18:22.000Z,55.5
2024-04-30T03:19:24.000Z,55.5
2024-04-30T03:20:27.000Z,55.5
2024-04-30T03:21:27.000Z,55.5
2024-04-30T03:22:23.000Z,55.2
2024-04-30T03:23:22.000Z,55.5
2024-04-30T03:24:24.000Z,55.5
2024-04-30T03:25:22.000Z,55.5
2024-04-30T03:26:22.000Z,55.6
2024-04-30T03:27:22.000Z,55.6
2024-04-30T03:28:22.000Z,55.6
2024-04-30T03:29:22.000Z,55.6
2024-04-30T03:30:22.000Z,55.4
2024-04-30T03:31:22.000Z,55.8
2024-04-30T03:32:22.000Z,55.8
2024-04-30T03:33:22.000Z,55.9
2024-04-30T03:34:22.000Z,55.9
2024-04-30T03:35:22.000Z,56
2024-04-30T03:36:22.000Z,56
2024-04-30T03:37:22.000Z,56
2024-04-30T03:38:22.000Z,55.9
2024-04-30T03:39:24.000Z,55.9
2024-04-30T03:40:24.000Z,55.9
2024-04-30T03:41:22.000Z,56
2024-04-30T03:42:22.000Z,55.9
2024-04-30T03:43:24.000Z,56
2024-04-30T03:44:22.000Z,56.1
2024-04-30T03:45:22.000Z,56.1
2024-04-30T03:46:22.000Z,56.2
2024-04-30T03:47:24.000Z,56.2
2024-04-30T03:48:22.000Z,56.3
2024-04-30T03:49:22.000Z,56.2
2024-04-30T03:50:22.000Z,56.3
2024-04-30T03:51:22.000Z,56.3
2024-04-30T03:52:22.000Z,56.4
2024-04-30T03:53:22.000Z,56.5
2024-04-30T03:54:23.000Z,56.5
2024-04-30T03:55:22.000Z,56.4
2024-04-30T03:56:22.000Z,56.5
2024-04-30T03:57:22.000Z,56.6
2024-04-30T03:58:22.000Z,56.6
2024-04-30T03:59:22.000Z,56.7
2024-04-30T04:00:23.000Z,56.7
2024-04-30T04:01:22.000Z,56.7
2024-04-30T04:02:22.000Z,56.7
2024-04-30T04:03:22.000Z,56.7
2024-04-30T04:04:22.000Z,56.7
2024-04-30T04:05:22.000Z,56.8
2024-04-30T04:06:22.000Z,56.9
2024-04-30T04:07:22.000Z,56.9
2024-04-30T04:08:22.000Z,56.9
2024-04-30T04:09:22.000Z,57
2024-04-30T04:10:22.000Z,57
2024-04-30T04:14:56.000Z,57.1
2024-04-30T04:15:51.000Z,57.3
2024-04-30T04:16:51.000Z,57.4
2024-04-30T04:17:51.000Z,57.4
2024-04-30T04:18:51.000Z,57.4
2024-04-30T04:19:51.000Z,57.5
2024-04-30T04:20:51.000Z,57.5
2024-04-30T04:21:51.000Z,57.5
2024-04-30T04:22:51.000Z,57.5
2024-04-30T04:23:51.000Z,57.5
2024-04-30T04:24:51.000Z,57.6
2024-04-30T04:25:51.000Z,57.6
2024-04-30T04:26:51.000Z,57.6
2024-04-30T04:27:54.000Z,57.6
2024-04-30T04:28:51.000Z,57.7
2024-04-30T04:29:51.000Z,57.7
2024-04-30T04:30:51.000Z,57.7
2024-04-30T04:31:51.000Z,57.8
2024-04-30T04:32:51.000Z,57.8
2024-04-30T04:33:51.000Z,57.8
2024-04-30T04:34:51.000Z,57.8
2024-04-30T04:35:51.000Z,57.9
2024-04-30T04:36:51.000Z,58
2024-04-30T04:37:51.000Z,58.6
2024-04-30T04:38:51.000Z,58.5
2024-04-30T04:39:51.000Z,58.4
2024-04-30T04:40:51.000Z,58.4
2024-04-30T04:41:51.000Z,58.3
2024-04-30T04:42:51.000Z,57.9
2024-04-30T04:43:51.000Z,58.3
2024-04-30T04:44:51.000Z,58.3
2024-04-30T04:45:51.000Z,58.3
2024-04-30T04:46:51.000Z,58.2
2024-04-30T04:47:51.000Z,58.3
2024-04-30T04:48:54.000Z,58.2
2024-04-30T04:49:51.000Z,58.3
2024-04-30T04:50:51.000Z,58.4
2024-04-30T04:51:51.000Z,58.5
2024-04-30T04:52:51.000Z,58.5
2024-04-30T04:53:52.000Z,58.5
2024-04-30T04:54:51.000Z,58.5
2024-04-30T04:55:51.000Z,58.5
2024-04-30T04:56:54.000Z,58.5
2024-04-30T04:57:51.000Z,58.5
2024-04-30T04:58:51.000Z,58.4
2024-04-30T04:59:51.000Z,58.5
2024-04-30T05:00:51.000Z,58.6
2024-04-30T05:01:51.000Z,58.5
2024-04-30T05:02:51.000Z,58.6
2024-04-30T05:03:52.000Z,59.1
2024-04-30T05:04:52.000Z,59.1
2024-04-30T05:05:51.000Z,59
2024-04-30T05:06:54.000Z,59
2024-04-30T05:07:51.000Z,59.1
2024-04-30T05:08:51.000Z,59.1
2024-04-30T05:09:54.000Z,59.2
2024-04-30T05:10:51.000Z,59.4
2024-04-30T05:11:54.000Z,59.4
2024-04-30T05:12:51.000Z,59.4
2024-04-30T05:13:51.000Z,59.5
2024-04-30T05:14:51.000Z,59.6
2024-04-30T05:15:51.000Z,59.6
2024-04-30T05:16:51.000Z,59.6
2024-04-30T05:17:51.000Z,59.7
2024-04-30T05:18:51.000Z,59.3
2024-04-30T05:19:51.000Z,59.6
2024-04-30T05:20:54.000Z,59.7
2024-04-30T05:21:51.000Z,59.8
2024-04-30T05:22:51.000Z,59.8
2024-04-30T05:23:51.000Z,59.8
2024-04-30T05:24:51.000Z,59.7
2024-04-30T05:25:51.000Z,59.7
2024-04-30T05:26:51.000Z,59.7
2024-04-30T05:27:51.000Z,59.7
2024-04-30T05:28:54.000Z,59.9
2024-04-30T05:29:51.000Z,59.9
2024-04-30T05:30:54.000Z,60.1
2024-04-30T05:31:51.000Z,60.1
2024-04-30T05:32:51.000Z,60.2
2024-04-30T05:33:54.000Z,60.2
2024-04-30T05:34:51.000Z,59.9
2024-04-30T05:35:51.000Z,60.4
2024-04-30T05:36:51.000Z,60.1
2024-04-30T05:37:51.000Z,60.6
2024-04-30T05:38:51.000Z,60.5
2024-04-30T05:39:51.000Z,60.6
2024-04-30T05:40:51.000Z,60.6
2024-04-30T05:41:51.000Z,60.5
2024-04-30T05:42:51.000Z,60.5
2024-04-30T05:43:51.000Z,60.4
2024-04-30T05:44:51.000Z,60.6
2024-04-30T05:45:51.000Z,60.7
2024-04-30T05:46:51.000Z,60.7
2024-04-30T05:47:51.000Z,60.7
2024-04-30T05:48:51.000Z,60.7
2024-04-30T05:49:51.000Z,60.8
2024-04-30T05:50:51.000Z,60.8
2024-04-30T05:51:51.000Z,60.9
2024-04-30T05:52:54.000Z,61.2
2024-04-30T05:53:54.000Z,61.5
2024-04-30T05:54:51.000Z,61.7
2024-04-30T05:55:51.000Z,61.6
2024-04-30T05:56:51.000Z,61.8
2024-04-30T05:57:55.000Z,62
2024-04-30T05:58:51.000Z,62.1
2024-04-30T05:59:51.000Z,62.2
2024-04-30T06:00:22.000Z,62.1
2024-04-30T06:01:23.000Z,62.2
2024-04-30T06:02:22.000Z,62.2
2024-04-30T06:03:22.000Z,62.2
2024-04-30T06:04:22.000Z,62.3
2024-04-30T06:05:22.000Z,62.3
2024-04-30T06:06:24.000Z,62.4
2024-04-30T06:07:24.000Z,62.4
2024-04-30T06:08:22.000Z,62.4
2024-04-30T06:09:22.000Z,62.6
2024-04-30T06:10:25.000Z,62.7
2024-04-30T06:11:22.000Z,62.7
2024-04-30T06:12:22.000Z,62.8
2024-04-30T06:13:22.000Z,63.1
2024-04-30T06:14:22.000Z,63.2
2024-04-30T06:15:22.000Z,63.2
2024-04-30T06:16:22.000Z,63.2
2024-04-30T06:17:25.000Z,63.3
2024-04-30T06:18:22.000Z,63.3
2024-04-30T06:19:23.000Z,63.3
2024-04-30T06:20:22.000Z,63.6
2024-04-30T06:21:22.000Z,63.5
2024-04-30T06:22:22.000Z,63.4
2024-04-30T06:23:22.000Z,63.5
2024-04-30T06:24:22.000Z,63.5
2024-04-30T06:25:22.000Z,63
2024-04-30T06:26:22.000Z,63.2
2024-04-30T06:27:22.000Z,63.2
2024-04-30T06:28:22.000Z,63.3
2024-04-30T06:29:25.000Z,63.3
2024-04-30T06:30:25.000Z,63.2
2024-04-30T06:31:22.000Z,63.2
2024-04-30T06:32:25.000Z,63
2024-04-30T06:33:22.000Z,63
2024-04-30T06:34:22.000Z,63
2024-04-30T06:35:22.000Z,62.9
2024-04-30T06:36:22.000Z,62.8
2024-04-30T06:37:22.000Z,63
2024-04-30T06:38:22.000Z,63
2024-04-30T06:39:23.000Z,62.9
2024-04-30T06:40:27.000Z,62.9
2024-04-30T06:41:22.000Z,62.9
2024-04-30T06:42:22.000Z,62.7
2024-04-30T06:43:22.000Z,62.7
2024-04-30T06:44:22.000Z,62.7
2024-04-30T06:45:25.000Z,62.7
2024-04-30T06:46:22.000Z,62.8
2024-04-30T06:47:22.000Z,62.7
2024-04-30T06:48:25.000Z,63.2
2024-04-30T06:49:22.000Z,63.2
2024-04-30T06:50:22.000Z,63.2
2024-04-30T06:51:22.000Z,63.2
2024-04-30T06:52:22.000Z,63.2
2024-04-30T06:53:22.000Z,63.3
2024-04-30T06:54:25.000Z,63.2
2024-04-30T06:55:22.000Z,63.4
2024-04-30T06:56:22.000Z,63.5
2024-04-30T06:57:22.000Z,63.6
2024-04-30T06:58:22.000Z,63.6
2024-04-30T06:59:22.000Z,63.5
2024-04-30T07:00:22.000Z,63.5
2024-04-30T07:01:22.000Z,64.1
2024-04-30T07:02:23.000Z,64
2024-04-30T07:03:22.000Z,63.9
2024-04-30T07:04:22.000Z,63.9
2024-04-30T07:05:22.000Z,63.9
2024-04-30T07:06:22.000Z,63.9
2024-04-30T07:07:22.000Z,63.9
2024-04-30T07:08:22.000Z,64.1
2024-04-30T07:09:22.000Z,64.2
2024-04-30T07:10:22.000Z,64.2
2024-04-30T07:11:22.000Z,64.2
2024-04-30T07:12:22.000Z,64.2
2024-04-30T07:13:22.000Z,64.1
2024-04-30T07:14:22.000Z,64.5
2024-04-30T07:15:22.000Z,64.5
2024-04-30T07:16:22.000Z,64.9
2024-04-30T07:17:22.000Z,65
2024-04-30T07:18:23.000Z,65.5
2024-04-30T07:19:22.000Z,65.5
2024-04-30T07:20:22.000Z,65.7
2024-04-30T07:21:22.000Z,65.6
2024-04-30T07:22:22.000Z,65.5
2024-04-30T07:23:22.000Z,65.4
2024-04-30T07:24:22.000Z,65.5
2024-04-30T07:25:22.000Z,65.5
2024-04-30T07:26:22.000Z,65.5
2024-04-30T07:27:25.000Z,65.4
2024-04-30T07:28:22.000Z,65.4
2024-04-30T07:29:23.000Z,65.3
2024-04-30T07:30:22.000Z,65.3
2024-04-30T07:31:22.000Z,65.5
2024-04-30T07:32:22.000Z,65.3
2024-04-30T07:33:22.000Z,65.5
2024-04-30T07:34:22.000Z,65.6
2024-04-30T07:35:22.000Z,65.5
2024-04-30T07:36:22.000Z,65.4
2024-04-30T07:37:22.000Z,65.3
2024-04-30T07:38:22.000Z,65.4
2024-04-30T07:39:22.000Z,65.5
2024-04-30T07:40:22.000Z,65.5
2024-04-30T07:41:22.000Z,65.2
2024-04-30T07:42:22.000Z,65.3
2024-04-30T07:43:22.000Z,65.3
2024-04-30T07:44:23.000Z,65.4
2024-04-30T07:45:23.000Z,65.1
2024-04-30T07:46:22.000Z,64.8
2024-04-30T07:47:22.000Z,64.7
2024-04-30T07:48:22.000Z,64.7
2024-04-30T07:49:22.000Z,64.5
2024-04-30T07:50:22.000Z,64.2
2024-04-30T07:51:22.000Z,63.9
2024-04-30T07:52:22.000Z,63.9
2024-04-30T07:53:22.000Z,63.8
2024-04-30T07:54:22.000Z,63.6
2024-04-30T07:55:22.000Z,63.6
2024-04-30T07:56:23.000Z,63.5
2024-04-30T07:57:22.000Z,63.5
2024-04-30T07:58:22.000Z,63.2
2024-04-30T07:59:23.000Z,63
2024-04-30T08:00:22.000Z,63.2
2024-04-30T08:01:21.000Z,63.2
2024-04-30T08:02:21.000Z,62.8
2024-04-30T08:03:22.000Z,62.7
2024-04-30T08:04:21.000Z,62.8
2024-04-30T08:05:21.000Z,62.8
2024-04-30T08:06:23.000Z,62.4
2024-04-30T08:07:21.000Z,62.3
2024-04-30T08:08:21.000Z,62.1
2024-04-30T08:09:21.000Z,61.9
2024-04-30T08:10:21.000Z,61.9
2024-04-30T08:11:21.000Z,61.8
2024-04-30T08:12:21.000Z,61.8
2024-04-30T08:13:24.000Z,61.6
2024-04-30T08:14:21.000Z,61.4
2024-04-30T08:15:21.000Z,61.2
2024-04-30T08:16:21.000Z,61.2
2024-04-30T08:17:24.000Z,60.9
2024-04-30T08:18:21.000Z,60.8
2024-04-30T08:19:21.000Z,60.6
2024-04-30T08:20:23.000Z,60.4
2024-04-30T08:21:21.000Z,60.1
2024-04-30T08:22:21.000Z,60.2
2024-04-30T08:23:21.000Z,59.2
2024-04-30T08:24:24.000Z,58.9
2024-04-30T08:25:21.000Z,58.8
2024-04-30T08:26:21.000Z,58.7
2024-04-30T08:27:21.000Z,57.9
2024-04-30T08:28:21.000Z,57.2
2024-04-30T08:29:24.000Z,57.2
2024-04-30T08:30:21.000Z,57.2
2024-04-30T08:31:21.000Z,57.3
2024-04-30T08:32:22.000Z,57.2
2024-04-30T08:33:24.000Z,56.8
2024-04-30T08:34:24.000Z,56.6
2024-04-30T08:35:22.000Z,56.5
2024-04-30T08:36:21.000Z,56.3
2024-04-30T08:37:21.000Z,56.4
2024-04-30T08:38:21.000Z,56.1
2024-04-30T08:39:21.000Z,56
2024-04-30T08:40:22.000Z,55.7
2024-04-30T08:41:24.000Z,55.7
2024-04-30T08:42:22.000Z,55.3
2024-04-30T08:43:22.000Z,55
2024-04-30T08:44:23.000Z,55.1
2024-04-30T08:45:26.000Z,54.5
2024-04-30T08:46:23.000Z,54.2
2024-04-30T08:47:26.000Z,54
2024-04-30T08:48:24.000Z,54
2024-04-30T08:49:24.000Z,54.1
2024-04-30T08:50:23.000Z,54.1
2024-04-30T08:51:24.000Z,54.2
2024-04-30T08:52:24.000Z,54
2024-04-30T08:53:23.000Z,53.9
2024-04-30T08:54:27.000Z,53.2
2024-04-30T08:55:24.000Z,53.2
2024-04-30T08:56:23.000Z,53.1
2024-04-30T08:57:21.000Z,53.2
2024-04-30T08:58:22.000Z,52.6
2024-04-30T08:59:22.000Z,52.7
2024-04-30T09:00:22.000Z,52.6
2024-04-30T09:01:23.000Z,52.5
2024-04-30T09:02:22.000Z,52.4
2024-04-30T09:03:24.000Z,52.3
2024-04-30T09:04:28.000Z,52.3
2024-04-30T09:05:22.000Z,52.3
2024-04-30T09:06:25.000Z,52.3
2024-04-30T09:07:22.000Z,52.3
2024-04-30T09:08:22.000Z,52.4
2024-04-30T09:09:22.000Z,52.2
2024-04-30T09:10:22.000Z,52.2
2024-04-30T09:11:21.000Z,52.3
2024-04-30T09:12:21.000Z,52.3
2024-04-30T09:13:33.000Z,52
2024-04-30T09:14:21.000Z,52.4
2024-04-30T09:15:22.000Z,52.4
2024-04-30T09:16:22.000Z,52.1
2024-04-30T09:17:26.000Z,52.1
2024-04-30T09:18:21.000Z,52.2
2024-04-30T09:19:25.000Z,52.2
2024-04-30T09:20:21.000Z,52.1
2024-04-30T09:21:29.000Z,51.8
2024-04-30T09:22:21.000Z,52.2
2024-04-30T09:23:26.000Z,52.1
2024-04-30T09:24:22.000Z,52.1
2024-04-30T09:25:34.000Z,52.3
2024-04-30T09:26:21.000Z,52.2
2024-04-30T09:27:30.000Z,52.2
2024-04-30T09:28:25.000Z,51.9
2024-04-30T09:29:30.000Z,51.8
2024-04-30T09:30:22.000Z,51.3
2024-04-30T09:31:22.000Z,51.3
2024-04-30T09:32:22.000Z,51.4
2024-04-30T09:33:23.000Z,51.7
2024-04-30T09:34:21.000Z,51.9
2024-04-30T09:35:25.000Z,51.9
2024-04-30T09:36:21.000Z,51.9
2024-04-30T09:37:23.000Z,51.7
2024-04-30T09:38:21.000Z,51.7
2024-04-30T09:39:22.000Z,51.7
2024-04-30T09:40:24.000Z,51.5
2024-04-30T09:41:26.000Z,51.5
2024-04-30T09:42:24.000Z,51.5
2024-04-30T09:43:22.000Z,51.3
2024-04-30T09:44:22.000Z,51.3
2024-04-30T09:45:23.000Z,51.3
2024-04-30T09:46:24.000Z,51.6
2024-04-30T09:47:24.000Z,51.8
2024-04-30T09:48:25.000Z,51.9
2024-04-30T09:49:23.000Z,52.1
2024-04-30T09:50:23.000Z,52.3
2024-04-30T09:51:28.000Z,52.3
2024-04-30T09:52:24.000Z,52.5
2024-04-30T09:53:24.000Z,52.5
2024-04-30T09:54:22.000Z,52.5
2024-04-30T09:55:26.000Z,52.7
2024-04-30T09:56:27.000Z,52.8
2024-04-30T09:57:23.000Z,53
2024-04-30T09:58:24.000Z,52.9
2024-04-30T09:59:21.000Z,52.9
2024-04-30T10:00:22.000Z,52.8
2024-04-30T10:01:26.000Z,52.9
2024-04-30T10:02:24.000Z,52.9
2024-04-30T10:03:23.000Z,52.7
2024-04-30T10:04:24.000Z,53.5
2024-04-30T10:05:30.000Z,53.4
2024-04-30T10:06:25.000Z,53.3
2024-04-30T10:07:30.000Z,53.2
2024-04-30T10:08:24.000Z,53.3
2024-04-30T10:09:22.000Z,53.1
2024-04-30T10:10:24.000Z,52.8
2024-04-30T10:11:22.000Z,52.8
2024-04-30T10:12:23.000Z,52.7
2024-04-30T10:13:25.000Z,52.6
2024-04-30T10:14:29.000Z,52.5
2024-04-30T10:15:30.000Z,52.5
2024-04-30T10:16:22.000Z,52.7
2024-04-30T10:17:22.000Z,52.6
2024-04-30T10:18:25.000Z,52.3
2024-04-30T10:19:22.000Z,52.3
2024-04-30T10:20:26.000Z,52
2024-04-30T10:21:32.000Z,51.8
2024-04-30T10:22:22.000Z,51.8
2024-04-30T10:23:27.000Z,51.8
2024-04-30T10:24:23.000Z,51.9
2024-04-30T10:25:24.000Z,51.9
2024-04-30T10:26:22.000Z,52
2024-04-30T10:27:22.000Z,51.9
2024-04-30T10:28:24.000Z,51.8
2024-04-30T10:29:22.000Z,51.5
2024-04-30T10:30:24.000Z,51.8
2024-04-30T10:31:25.000Z,51.5
2024-04-30T10:32:22.000Z,51.4
2024-04-30T10:33:24.000Z,51.5
2024-04-30T10:34:25.000Z,51.4
2024-04-30T10:35:41.000Z,51.6
2024-04-30T10:36:22.000Z,51.7
2024-04-30T10:37:28.000Z,51.4
2024-04-30T10:38:22.000Z,51.2
2024-04-30T10:39:23.000Z,51.1
2024-04-30T10:40:26.000Z,51.2
2024-04-30T10:41:22.000Z,51.2
2024-04-30T10:42:33.000Z,50.8
2024-04-30T10:43:23.000Z,50.4
2024-04-30T10:44:22.000Z,50.3
2024-04-30T10:45:23.000Z,50
2024-04-30T10:46:26.000Z,50.3
2024-04-30T10:47:25.000Z,50.5
2024-04-30T10:48:22.000Z,50.5
2024-04-30T10:49:22.000Z,50.5
2024-04-30T10:50:22.000Z,50.7
2024-04-30T10:51:24.000Z,50.7
2024-04-30T10:52:23.000Z,50.6
2024-04-30T10:53:22.000Z,50.6
2024-04-30T10:54:23.000Z,50.8
2024-04-30T10:55:23.000Z,49.7
2024-04-30T10:56:22.000Z,49.8
2024-04-30T10:57:29.000Z,49.6
2024-04-30T10:58:22.000Z,49.7
2024-04-30T10:59:26.000Z,49.3
2024-04-30T11:00:22.000Z,49.3
2024-04-30T11:01:24.000Z,49
2024-04-30T11:02:25.000Z,48.6
2024-04-30T11:03:25.000Z,48.3
2024-04-30T11:04:28.000Z,48.4
2024-04-30T11:05:27.000Z,48
2024-04-30T11:06:22.000Z,48.2
2024-04-30T11:07:23.000Z,48
2024-04-30T11:08:23.000Z,48.4
2024-04-30T11:09:22.000Z,48.5
2024-04-30T11:10:26.000Z,48.5
2024-04-30T11:11:45.000Z,48.5
2024-04-30T11:12:22.000Z,48.3
2024-04-30T11:13:25.000Z,48.3
2024-04-30T11:14:23.000Z,48.4
2024-04-30T11:15:22.000Z,48.4
2024-04-30T11:16:22.000Z,48.4
2024-04-30T11:17:27.000Z,48.4
2024-04-30T11:18:24.000Z,48.4
2024-04-30T11:19:22.000Z,48.9
2024-04-30T11:20:22.000Z,48.9
2024-04-30T11:21:22.000Z,48.7
2024-04-30T11:22:25.000Z,48.7
2024-04-30T11:23:23.000Z,48.7
2024-04-30T11:24:25.000Z,48.4
2024-04-30T11:25:22.000Z,48.4
2024-04-30T11:26:22.000Z,48.3
2024-04-30T11:27:25.000Z,48.3
2024-04-30T11:28:22.000Z,48.3
2024-04-30T11:29:22.000Z,48.5
2024-04-30T11:30:22.000Z,48.5
2024-04-30T11:31:22.000Z,48.1
2024-04-30T11:32:22.000Z,47.7
2024-04-30T11:33:22.000Z,47.3
2024-04-30T11:34:23.000Z,47.1
2024-04-30T11:35:22.000Z,46.4
2024-04-30T11:36:22.000Z,46.5
2024-04-30T11:37:23.000Z,46.6
2024-04-30T11:38:24.000Z,46.4
2024-04-30T11:39:22.000Z,46.5
2024-04-30T11:40:22.000Z,46.5
2024-04-30T11:41:25.000Z,46.3
2024-04-30T11:42:22.000Z,45.6
2024-04-30T11:43:22.000Z,46.1
2024-04-30T11:44:22.000Z,45.9
2024-04-30T11:45:26.000Z,45.3
2024-04-30T11:46:22.000Z,45.3
2024-04-30T11:47:22.000Z,44.1
2024-04-30T11:48:22.000Z,44.3
2024-04-30T11:49:22.000Z,44.9
2024-04-30T11:50:22.000Z,44.2
2024-04-30T11:51:30.000Z,44.4
2024-04-30T11:52:22.000Z,45.2
2024-04-30T11:53:27.000Z,45.1
2024-04-30T11:54:22.000Z,43.6
2024-04-30T11:55:23.000Z,44.5
2024-04-30T11:56:26.000Z,44.2
2024-04-30T11:57:22.000Z,44.7
2024-04-30T11:58:22.000Z,44.1
2024-04-30T11:59:23.000Z,43.9
2024-04-30T12:00:22.000Z,43.9
2024-04-30T12:01:23.000Z,42.7
2024-04-30T12:02:22.000Z,43.7
2024-04-30T12:03:22.000Z,42.8
2024-04-30T12:04:27.000Z,43.5
2024-04-30T12:05:23.000Z,42.8
2024-04-30T12:06:22.000Z,43.7
2024-04-30T12:07:22.000Z,43.6
2024-04-30T12:08:23.000Z,43.2
2024-04-30T12:09:35.000Z,44.1
2024-04-30T12:10:22.000Z,43.4
2024-04-30T12:11:22.000Z,43.3
2024-04-30T12:12:22.000Z,43
2024-04-30T12:13:23.000Z,42.7
2024-04-30T12:14:23.000Z,42.7
2024-04-30T12:15:23.000Z,42.8
2024-04-30T12:16:24.000Z,43.8
2024-04-30T12:17:24.000Z,43.2
2024-04-30T12:18:23.000Z,43
2024-04-30T12:19:23.000Z,43.8
2024-04-30T12:20:23.000Z,43.2
2024-04-30T12:21:23.000Z,42.9
2024-04-30T12:22:25.000Z,41.7
2024-04-30T12:23:24.000Z,42.7
2024-04-30T12:24:22.000Z,42.4
2024-04-30T12:25:22.000Z,42.2
2024-04-30T12:26:22.000Z,43.2
2024-04-30T12:27:22.000Z,42.2
2024-04-30T12:28:22.000Z,42.5
2024-04-30T12:29:22.000Z,42.9
2024-04-30T12:30:26.000Z,41.4
2024-04-30T12:31:25.000Z,43.1
2024-04-30T12:32:22.000Z,41.3
2024-04-30T12:33:22.000Z,42.7
2024-04-30T12:45:21.000Z,41.8
2024-04-30T12:46:21.000Z,42.1
2024-04-30T12:47:22.000Z,41.9
2024-04-30T12:48:21.000Z,41.7
2024-04-30T12:49:23.000Z,42
2024-04-30T12:50:21.000Z,40.7
2024-04-30T12:51:21.000Z,41.5
2024-04-30T12:52:21.000Z,41.3
2024-04-30T12:53:21.000Z,41.7
2024-04-30T12:54:21.000Z,41.3
2024-04-30T12:55:21.000Z,41.5
2024-04-30T12:56:21.000Z,41.4
2024-04-30T12:57:21.000Z,41.6
2024-04-30T12:58:22.000Z,41.4
2024-04-30T12:59:21.000Z,41.5
2024-04-30T13:00:21.000Z,40.8
2024-04-30T13:01:21.000Z,41.6
2024-04-30T13:02:21.000Z,41.5
2024-04-30T13:03:21.000Z,42.4
2024-04-30T13:04:23.000Z,41.3
2024-04-30T13:05:21.000Z,40.4
2024-04-30T13:06:21.000Z,41
2024-04-30T13:07:21.000Z,41.1
2024-04-30T13:08:22.000Z,40.2
2024-04-30T13:09:21.000Z,41.7
2024-04-30T13:10:22.000Z,40.9
2024-04-30T13:11:21.000Z,40.6
2024-04-30T13:12:21.000Z,40.6
2024-04-30T13:13:21.000Z,40.3
2024-04-30T13:14:26.000Z,41.3
2024-04-30T13:15:21.000Z,40
2024-04-30T13:16:21.000Z,41.4
2024-04-30T13:17:21.000Z,40.4
2024-04-30T13:18:24.000Z,40.1
2024-04-30T13:19:22.000Z,40.3
2024-04-30T13:20:21.000Z,41
2024-04-30T13:21:21.000Z,41.1
2024-04-30T13:23:06.000Z,41.1
2024-04-30T13:24:10.000Z,40.9
2024-04-30T13:42:05.000Z,40.2
2024-04-30T13:45:05.000Z,40.8
2024-04-30T13:46:04.000Z,40.7
2024-04-30T13:48:16.000Z,40.5
2024-04-30T13:48:51.000Z,40.3
2024-04-30T13:49:51.000Z,39.2
2024-04-30T13:50:51.000Z,40.1
2024-04-30T13:51:51.000Z,38.9
2024-04-30T13:52:54.000Z,39.6
2024-04-30T13:53:51.000Z,39.8
2024-04-30T13:54:51.000Z,38.7
2024-04-30T13:55:51.000Z,38.7
2024-04-30T13:56:51.000Z,39.6
2024-04-30T13:57:51.000Z,39.6
2024-04-30T13:58:56.000Z,38.5
2024-04-30T13:59:52.000Z,38.5
2024-04-30T14:00:22.000Z,39
2024-04-30T14:01:22.000Z,39.4